sensor_id;sensor_type;location;lat;lon;timestamp;pressure;altitude;pressure_sealevel;temperature;humidity
79534;BME280;68982;52.160;6.736;2024-01-06T00:01:26;99962.06;;;3.97;100.00
79534;BME280;68982;52.160;6.736;2024-01-06T00:03:51;99958.38;;;3.98;100.00
79534;BME280;68982;52.160;6.736;2024-01-06T00:06:17;99965.72;;;3.95;100.00
79534;BME280;68982;52.160;6.736;2024-01-06T00:08:42;99975.59;;;3.87;100.00
79534;BME280;68982;52.160;6.736;2024-01-06T00:11:07;99964.41;;;3.83;100.00
79534;BME280;68982;52.160;6.736;2024-01-06T00:13:33;99968.06;;;3.90;100.00
79534;BME280;68982;52.160;6.736;2024-01-06T00:16:00;99968.72;;;3.84;100.00
79534;BME280;68982;52.160;6.736;2024-01-06T00:18:25;99975.38;;;3.88;100.00
79534;BME280;68982;52.160;6.736;2024-01-06T00:20:51;99972.56;;;3.82;100.00
79534;BME280;68982;52.160;6.736;2024-01-06T00:23:16;99975.88;;;3.84;100.00
79534;BME280;68982;52.160;6.736;2024-01-06T00:25:42;99973.38;;;3.82;100.00
79534;BME280;68982;52.160;6.736;2024-01-06T00:28:07;99981.22;;;3.67;100.00
79534;BME280;68982;52.160;6.736;2024-01-06T00:30:32;99989.53;;;3.64;100.00
79534;BME280;68982;52.160;6.736;2024-01-06T00:32:58;99983.53;;;3.62;100.00
79534;BME280;68982;52.160;6.736;2024-01-06T00:35:23;99986.53;;;3.59;100.00
79534;BME280;68982;52.160;6.736;2024-01-06T00:37:48;99988.03;;;3.53;100.00
79534;BME280;68982;52.160;6.736;2024-01-06T00:40:14;99993.84;;;3.57;100.00
79534;BME280;68982;52.160;6.736;2024-01-06T00:42:39;99984.00;;;3.41;100.00
79534;BME280;68982;52.160;6.736;2024-01-06T00:45:05;99993.16;;;3.39;100.00
79534;BME280;68982;52.160;6.736;2024-01-06T00:47:31;99997.81;;;3.37;100.00
79534;BME280;68982;52.160;6.736;2024-01-06T00:49:56;99996.50;;;3.41;100.00
79534;BME280;68982;52.160;6.736;2024-01-06T00:52:21;100005.47;;;3.40;100.00
79534;BME280;68982;52.160;6.736;2024-01-06T00:54:46;100003.00;;;3.38;100.00
79534;BME280;68982;52.160;6.736;2024-01-06T00:57:12;100015.63;;;3.36;100.00
79534;BME280;68982;52.160;6.736;2024-01-06T00:59:37;100006.47;;;3.39;100.00
79534;BME280;68982;52.160;6.736;2024-01-06T01:02:03;100009.31;;;3.37;100.00
79534;BME280;68982;52.160;6.736;2024-01-06T01:04:28;100019.31;;;3.43;100.00
79534;BME280;68982;52.160;6.736;2024-01-06T01:06:53;100020.28;;;3.42;100.00
79534;BME280;68982;52.160;6.736;2024-01-06T01:09:19;100025.66;;;3.50;100.00
79534;BME280;68982;52.160;6.736;2024-01-06T01:11:44;100025.31;;;3.45;100.00
79534;BME280;68982;52.160;6.736;2024-01-06T01:14:09;100022.47;;;3.39;100.00
79534;BME280;68982;52.160;6.736;2024-01-06T01:16:35;100018.97;;;3.38;100.00
79534;BME280;68982;52.160;6.736;2024-01-06T01:19:00;100031.16;;;3.41;100.00
79534;BME280;68982;52.160;6.736;2024-01-06T01:21:27;100034.00;;;3.47;100.00
79534;BME280;68982;52.160;6.736;2024-01-06T01:23:52;100032.78;;;3.34;100.00
79534;BME280;68982;52.160;6.736;2024-01-06T01:26:18;100042.59;;;3.33;100.00
79534;BME280;68982;52.160;6.736;2024-01-06T01:28:43;100042.25;;;3.28;100.00
79534;BME280;68982;52.160;6.736;2024-01-06T01:31:08;100046.75;;;3.27;100.00
79534;BME280;68982;52.160;6.736;2024-01-06T01:33:33;100054.75;;;3.27;100.00
79534;BME280;68982;52.160;6.736;2024-01-06T01:35:59;100062.44;;;3.39;100.00
79534;BME280;68982;52.160;6.736;2024-01-06T01:38:24;100057.34;;;3.53;100.00
79534;BME280;68982;52.160;6.736;2024-01-06T01:40:49;100056.97;;;3.40;100.00
79534;BME280;68982;52.160;6.736;2024-01-06T01:43:16;100072.28;;;3.46;100.00
79534;BME280;68982;52.160;6.736;2024-01-06T01:45:42;100078.16;;;3.50;100.00
79534;BME280;68982;52.160;6.736;2024-01-06T01:48:07;100077.16;;;3.59;100.00
79534;BME280;68982;52.160;6.736;2024-01-06T01:50:33;100081.47;;;3.52;100.00
79534;BME280;68982;52.160;6.736;2024-01-06T01:52:59;100081.38;;;3.27;100.00
79534;BME280;68982;52.160;6.736;2024-01-06T01:55:24;100082.38;;;3.26;100.00
79534;BME280;68982;52.160;6.736;2024-01-06T01:57:50;100082.16;;;3.20;100.00
79534;BME280;68982;52.160;6.736;2024-01-06T02:00:15;100093.19;;;3.25;100.00
79534;BME280;68982;52.160;6.736;2024-01-06T02:02:41;100092.00;;;3.19;100.00
79534;BME280;68982;52.160;6.736;2024-01-06T02:05:06;100099.63;;;3.14;100.00
79534;BME280;68982;52.160;6.736;2024-01-06T02:07:32;100096.09;;;3.05;100.00
79534;BME280;68982;52.160;6.736;2024-01-06T02:09:57;100096.59;;;3.09;100.00
79534;BME280;68982;52.160;6.736;2024-01-06T02:12:22;100103.06;;;2.98;100.00
79534;BME280;68982;52.160;6.736;2024-01-06T02:14:48;100103.53;;;2.94;100.00
79534;BME280;68982;52.160;6.736;2024-01-06T02:17:13;100107.03;;;3.02;100.00
79534;BME280;68982;52.160;6.736;2024-01-06T02:19:38;100115.69;;;2.96;100.00
79534;BME280;68982;52.160;6.736;2024-01-06T02:22:04;100112.50;;;2.93;100.00
79534;BME280;68982;52.160;6.736;2024-01-06T02:24:29;100112.16;;;2.96;100.00
79534;BME280;68982;52.160;6.736;2024-01-06T02:26:55;100098.53;;;2.73;100.00
79534;BME280;68982;52.160;6.736;2024-01-06T02:29:20;100115.75;;;2.78;100.00
79534;BME280;68982;52.160;6.736;2024-01-06T02:31:45;100127.34;;;2.77;100.00
79534;BME280;68982;52.160;6.736;2024-01-06T02:34:11;100126.75;;;2.83;100.00
79534;BME280;68982;52.160;6.736;2024-01-06T02:36:36;100110.06;;;2.55;100.00
79534;BME280;68982;52.160;6.736;2024-01-06T02:39:01;100143.81;;;2.73;100.00
79534;BME280;68982;52.160;6.736;2024-01-06T02:41:27;100147.94;;;2.67;100.00
79534;BME280;68982;52.160;6.736;2024-01-06T02:43:54;100147.84;;;2.59;100.00
79534;BME280;68982;52.160;6.736;2024-01-06T02:46:21;100153.50;;;2.56;100.00
79534;BME280;68982;52.160;6.736;2024-01-06T02:48:46;100157.22;;;2.45;100.00
79534;BME280;68982;52.160;6.736;2024-01-06T02:51:12;100161.09;;;2.51;100.00
79534;BME280;68982;52.160;6.736;2024-01-06T02:53:38;100163.75;;;2.51;100.00
79534;BME280;68982;52.160;6.736;2024-01-06T02:56:03;100163.00;;;2.40;100.00
79534;BME280;68982;52.160;6.736;2024-01-06T02:58:29;100179.25;;;2.37;100.00
79534;BME280;68982;52.160;6.736;2024-01-06T03:00:54;100172.56;;;2.33;100.00
79534;BME280;68982;52.160;6.736;2024-01-06T03:03:19;100171.28;;;2.37;100.00
79534;BME280;68982;52.160;6.736;2024-01-06T03:05:45;100184.13;;;2.42;100.00
79534;BME280;68982;52.160;6.736;2024-01-06T03:08:14;100185.56;;;2.36;100.00
79534;BME280;68982;52.160;6.736;2024-01-06T03:10:39;100188.84;;;2.30;100.00
79534;BME280;68982;52.160;6.736;2024-01-06T03:13:04;100187.09;;;2.21;100.00
79534;BME280;68982;52.160;6.736;2024-01-06T03:15:30;100192.53;;;2.19;100.00
79534;BME280;68982;52.160;6.736;2024-01-06T03:17:55;100183.97;;;2.25;100.00
79534;BME280;68982;52.160;6.736;2024-01-06T03:20:20;100198.78;;;2.28;100.00
79534;BME280;68982;52.160;6.736;2024-01-06T03:22:46;100203.66;;;2.33;100.00
79534;BME280;68982;52.160;6.736;2024-01-06T03:25:12;100185.81;;;2.25;100.00
79534;BME280;68982;52.160;6.736;2024-01-06T03:27:37;100197.13;;;2.27;100.00
79534;BME280;68982;52.160;6.736;2024-01-06T03:30:02;100197.81;;;2.29;100.00
79534;BME280;68982;52.160;6.736;2024-01-06T03:32:28;100206.38;;;2.23;100.00
79534;BME280;68982;52.160;6.736;2024-01-06T03:34:53;100211.41;;;2.26;100.00
79534;BME280;68982;52.160;6.736;2024-01-06T03:37:19;100215.06;;;2.25;100.00
79534;BME280;68982;52.160;6.736;2024-01-06T03:39:44;100223.84;;;2.07;100.00
79534;BME280;68982;52.160;6.736;2024-01-06T03:42:09;100230.53;;;2.12;100.00
79534;BME280;68982;52.160;6.736;2024-01-06T03:44:35;100226.59;;;2.16;100.00
79534;BME280;68982;52.160;6.736;2024-01-06T03:47:00;100224.22;;;2.13;100.00
79534;BME280;68982;52.160;6.736;2024-01-06T03:49:25;100204.97;;;2.01;100.00
79534;BME280;68982;52.160;6.736;2024-01-06T03:51:51;100223.88;;;1.98;100.00
79534;BME280;68982;52.160;6.736;2024-01-06T03:54:17;100232.78;;;2.06;100.00
79534;BME280;68982;52.160;6.736;2024-01-06T03:56:42;100223.34;;;1.94;100.00
79534;BME280;68982;52.160;6.736;2024-01-06T03:59:08;100237.78;;;1.92;100.00
79534;BME280;68982;52.160;6.736;2024-01-06T04:01:33;100239.31;;;1.94;100.00
79534;BME280;68982;52.160;6.736;2024-01-06T04:04:02;100238.16;;;1.97;100.00
79534;BME280;68982;52.160;6.736;2024-01-06T04:06:27;100243.16;;;2.10;100.00
79534;BME280;68982;52.160;6.736;2024-01-06T04:08:53;100245.13;;;2.07;100.00
79534;BME280;68982;52.160;6.736;2024-01-06T04:11:20;100250.53;;;2.16;100.00
79534;BME280;68982;52.160;6.736;2024-01-06T04:13:45;100254.38;;;2.03;100.00
79534;BME280;68982;52.160;6.736;2024-01-06T04:16:11;100252.59;;;1.94;100.00
79534;BME280;68982;52.160;6.736;2024-01-06T04:18:36;100253.81;;;2.00;100.00
79534;BME280;68982;52.160;6.736;2024-01-06T04:21:01;100252.53;;;2.04;100.00
79534;BME280;68982;52.160;6.736;2024-01-06T04:23:27;100254.50;;;2.02;100.00
79534;BME280;68982;52.160;6.736;2024-01-06T04:25:52;100257.13;;;2.12;100.00
79534;BME280;68982;52.160;6.736;2024-01-06T04:28:17;100260.38;;;2.05;100.00
79534;BME280;68982;52.160;6.736;2024-01-06T04:30:43;100251.38;;;2.16;100.00
79534;BME280;68982;52.160;6.736;2024-01-06T04:33:08;100257.97;;;2.12;100.00
79534;BME280;68982;52.160;6.736;2024-01-06T04:35:33;100265.31;;;2.28;100.00
79534;BME280;68982;52.160;6.736;2024-01-06T04:37:59;100265.16;;;2.30;100.00
79534;BME280;68982;52.160;6.736;2024-01-06T04:40:24;100274.03;;;2.20;100.00
79534;BME280;68982;52.160;6.736;2024-01-06T04:42:49;100275.22;;;2.36;100.00
79534;BME280;68982;52.160;6.736;2024-01-06T04:45:15;100286.94;;;2.43;100.00
79534;BME280;68982;52.160;6.736;2024-01-06T04:47:40;100284.72;;;2.38;100.00
79534;BME280;68982;52.160;6.736;2024-01-06T04:50:06;100293.91;;;2.44;100.00
79534;BME280;68982;52.160;6.736;2024-01-06T04:52:31;100291.78;;;2.20;100.00
79534;BME280;68982;52.160;6.736;2024-01-06T04:54:57;100287.13;;;2.04;100.00
79534;BME280;68982;52.160;6.736;2024-01-06T04:57:22;100295.06;;;2.14;100.00
79534;BME280;68982;52.160;6.736;2024-01-06T04:59:48;100296.09;;;2.03;100.00
79534;BME280;68982;52.160;6.736;2024-01-06T05:02:14;100293.50;;;2.11;100.00
79534;BME280;68982;52.160;6.736;2024-01-06T05:04:39;100295.16;;;2.22;100.00
79534;BME280;68982;52.160;6.736;2024-01-06T05:07:04;100305.28;;;2.08;100.00
79534;BME280;68982;52.160;6.736;2024-01-06T05:09:30;100304.41;;;2.18;100.00
79534;BME280;68982;52.160;6.736;2024-01-06T05:11:55;100313.19;;;2.28;100.00
79534;BME280;68982;52.160;6.736;2024-01-06T05:14:20;100312.13;;;2.11;100.00
79534;BME280;68982;52.160;6.736;2024-01-06T05:16:46;100316.09;;;1.97;100.00
79534;BME280;68982;52.160;6.736;2024-01-06T05:19:11;100314.97;;;2.00;100.00
79534;BME280;68982;52.160;6.736;2024-01-06T05:21:36;100299.56;;;2.03;100.00
79534;BME280;68982;52.160;6.736;2024-01-06T05:24:02;100321.44;;;1.97;100.00
79534;BME280;68982;52.160;6.736;2024-01-06T05:26:28;100319.44;;;2.09;100.00
79534;BME280;68982;52.160;6.736;2024-01-06T05:28:53;100323.31;;;2.15;100.00
79534;BME280;68982;52.160;6.736;2024-01-06T05:31:19;100329.91;;;2.11;100.00
79534;BME280;68982;52.160;6.736;2024-01-06T05:33:44;100324.66;;;2.01;100.00
79534;BME280;68982;52.160;6.736;2024-01-06T05:36:09;100325.09;;;1.96;100.00
79534;BME280;68982;52.160;6.736;2024-01-06T05:38:36;100331.59;;;2.12;100.00
79534;BME280;68982;52.160;6.736;2024-01-06T05:41:01;100332.75;;;1.99;100.00
79534;BME280;68982;52.160;6.736;2024-01-06T05:43:27;100341.03;;;1.86;100.00
79534;BME280;68982;52.160;6.736;2024-01-06T05:45:52;100340.34;;;1.94;100.00
79534;BME280;68982;52.160;6.736;2024-01-06T05:48:17;100343.66;;;2.06;100.00
79534;BME280;68982;52.160;6.736;2024-01-06T05:50:43;100340.16;;;2.05;100.00
79534;BME280;68982;52.160;6.736;2024-01-06T05:53:08;100350.09;;;2.03;100.00
79534;BME280;68982;52.160;6.736;2024-01-06T05:55:34;100352.88;;;2.12;100.00
79534;BME280;68982;52.160;6.736;2024-01-06T05:57:59;100348.59;;;2.01;100.00
79534;BME280;68982;52.160;6.736;2024-01-06T06:00:26;100353.38;;;1.88;100.00
79534;BME280;68982;52.160;6.736;2024-01-06T06:02:51;100358.97;;;1.84;100.00
79534;BME280;68982;52.160;6.736;2024-01-06T06:05:17;100351.25;;;1.91;100.00
79534;BME280;68982;52.160;6.736;2024-01-06T06:07:42;100371.16;;;1.77;100.00
79534;BME280;68982;52.160;6.736;2024-01-06T06:10:10;100372.81;;;1.88;100.00
79534;BME280;68982;52.160;6.736;2024-01-06T06:12:36;100381.75;;;1.97;100.00
79534;BME280;68982;52.160;6.736;2024-01-06T06:15:03;100380.00;;;1.68;100.00
79534;BME280;68982;52.160;6.736;2024-01-06T06:17:30;100377.31;;;1.78;100.00
79534;BME280;68982;52.160;6.736;2024-01-06T06:19:56;100384.69;;;2.03;100.00
79534;BME280;68982;52.160;6.736;2024-01-06T06:22:22;100391.56;;;1.96;100.00
79534;BME280;68982;52.160;6.736;2024-01-06T06:24:47;100398.56;;;1.88;100.00
79534;BME280;68982;52.160;6.736;2024-01-06T06:27:13;100399.72;;;1.85;100.00
79534;BME280;68982;52.160;6.736;2024-01-06T06:29:38;100395.44;;;2.02;100.00
79534;BME280;68982;52.160;6.736;2024-01-06T06:32:03;100404.81;;;2.16;100.00
79534;BME280;68982;52.160;6.736;2024-01-06T06:34:29;100408.75;;;2.02;100.00
79534;BME280;68982;52.160;6.736;2024-01-06T06:36:55;100408.22;;;1.98;100.00
79534;BME280;68982;52.160;6.736;2024-01-06T06:39:20;100413.94;;;2.03;100.00
79534;BME280;68982;52.160;6.736;2024-01-06T06:41:46;100418.69;;;2.10;100.00
79534;BME280;68982;52.160;6.736;2024-01-06T06:44:11;100421.25;;;1.82;100.00
79534;BME280;68982;52.160;6.736;2024-01-06T06:46:36;100430.91;;;1.73;100.00
79534;BME280;68982;52.160;6.736;2024-01-06T06:49:02;100429.09;;;1.83;100.00
79534;BME280;68982;52.160;6.736;2024-01-06T06:51:27;100443.66;;;1.70;100.00
79534;BME280;68982;52.160;6.736;2024-01-06T06:53:53;100442.38;;;1.64;100.00
79534;BME280;68982;52.160;6.736;2024-01-06T06:56:19;100441.09;;;1.78;100.00
79534;BME280;68982;52.160;6.736;2024-01-06T06:58:44;100455.53;;;1.65;100.00
79534;BME280;68982;52.160;6.736;2024-01-06T07:01:10;100461.97;;;1.73;100.00
79534;BME280;68982;52.160;6.736;2024-01-06T07:03:35;100460.28;;;1.52;100.00
79534;BME280;68982;52.160;6.736;2024-01-06T07:06:00;100466.84;;;1.58;100.00
79534;BME280;68982;52.160;6.736;2024-01-06T07:08:25;100471.34;;;1.57;100.00
79534;BME280;68982;52.160;6.736;2024-01-06T07:10:51;100476.94;;;1.64;100.00
79534;BME280;68982;52.160;6.736;2024-01-06T07:13:16;100483.53;;;1.70;100.00
79534;BME280;68982;52.160;6.736;2024-01-06T07:15:41;100487.56;;;1.64;100.00
79534;BME280;68982;52.160;6.736;2024-01-06T07:18:07;100492.47;;;1.59;100.00
79534;BME280;68982;52.160;6.736;2024-01-06T07:20:32;100502.97;;;1.60;100.00
79534;BME280;68982;52.160;6.736;2024-01-06T07:22:58;100496.78;;;1.60;100.00
79534;BME280;68982;52.160;6.736;2024-01-06T07:25:23;100497.38;;;1.83;100.00
79534;BME280;68982;52.160;6.736;2024-01-06T07:27:48;100509.84;;;1.82;100.00
79534;BME280;68982;52.160;6.736;2024-01-06T07:30:14;100511.63;;;1.72;100.00
79534;BME280;68982;52.160;6.736;2024-01-06T07:32:39;100513.44;;;1.42;100.00
79534;BME280;68982;52.160;6.736;2024-01-06T07:35:04;100522.81;;;1.56;100.00
79534;BME280;68982;52.160;6.736;2024-01-06T07:37:30;100530.25;;;1.62;100.00
79534;BME280;68982;52.160;6.736;2024-01-06T07:39:55;100523.66;;;1.66;100.00
79534;BME280;68982;52.160;6.736;2024-01-06T07:42:21;100534.00;;;1.50;100.00
79534;BME280;68982;52.160;6.736;2024-01-06T07:44:47;100540.13;;;1.51;100.00
79534;BME280;68982;52.160;6.736;2024-01-06T07:47:12;100545.78;;;1.77;100.00
79534;BME280;68982;52.160;6.736;2024-01-06T07:49:37;100545.91;;;1.65;100.00
79534;BME280;68982;52.160;6.736;2024-01-06T07:52:03;100546.75;;;1.66;100.00
79534;BME280;68982;52.160;6.736;2024-01-06T07:54:28;100543.38;;;1.64;100.00
79534;BME280;68982;52.160;6.736;2024-01-06T07:56:54;100555.09;;;1.42;100.00
79534;BME280;68982;52.160;6.736;2024-01-06T07:59:20;100561.72;;;1.67;100.00
79534;BME280;68982;52.160;6.736;2024-01-06T08:01:45;100567.34;;;1.74;100.00
79534;BME280;68982;52.160;6.736;2024-01-06T08:04:11;100564.22;;;1.49;100.00
79534;BME280;68982;52.160;6.736;2024-01-06T08:06:36;100563.03;;;1.22;100.00
79534;BME280;68982;52.160;6.736;2024-01-06T08:09:02;100576.75;;;1.37;100.00
79534;BME280;68982;52.160;6.736;2024-01-06T08:11:28;100572.22;;;1.18;100.00
79534;BME280;68982;52.160;6.736;2024-01-06T08:13:54;100581.44;;;1.14;100.00
79534;BME280;68982;52.160;6.736;2024-01-06T08:16:19;100591.22;;;1.14;100.00
79534;BME280;68982;52.160;6.736;2024-01-06T08:18:44;100594.31;;;1.19;100.00
79534;BME280;68982;52.160;6.736;2024-01-06T08:21:10;100606.28;;;1.44;100.00
79534;BME280;68982;52.160;6.736;2024-01-06T08:23:36;100596.47;;;1.35;100.00
79534;BME280;68982;52.160;6.736;2024-01-06T08:26:01;100600.41;;;1.10;100.00
79534;BME280;68982;52.160;6.736;2024-01-06T08:28:26;100597.75;;;1.40;100.00
79534;BME280;68982;52.160;6.736;2024-01-06T08:30:52;100598.25;;;1.24;100.00
79534;BME280;68982;52.160;6.736;2024-01-06T08:33:17;100606.47;;;1.21;100.00
79534;BME280;68982;52.160;6.736;2024-01-06T08:35:43;100614.75;;;1.28;100.00
79534;BME280;68982;52.160;6.736;2024-01-06T08:38:08;100619.66;;;1.33;100.00
79534;BME280;68982;52.160;6.736;2024-01-06T08:40:34;100615.69;;;1.17;100.00
79534;BME280;68982;52.160;6.736;2024-01-06T08:43:00;100619.56;;;1.13;100.00
79534;BME280;68982;52.160;6.736;2024-01-06T08:45:25;100610.16;;;1.30;100.00
79534;BME280;68982;52.160;6.736;2024-01-06T08:47:51;100626.88;;;1.21;100.00
79534;BME280;68982;52.160;6.736;2024-01-06T08:50:16;100616.53;;;1.18;100.00
79534;BME280;68982;52.160;6.736;2024-01-06T08:52:41;100634.53;;;1.14;100.00
79534;BME280;68982;52.160;6.736;2024-01-06T08:55:07;100637.06;;;1.16;100.00
79534;BME280;68982;52.160;6.736;2024-01-06T08:57:33;100643.47;;;1.44;100.00
79534;BME280;68982;52.160;6.736;2024-01-06T08:59:58;100643.63;;;1.42;100.00
79534;BME280;68982;52.160;6.736;2024-01-06T09:02:24;100637.38;;;1.22;100.00
79534;BME280;68982;52.160;6.736;2024-01-06T09:04:49;100654.81;;;1.46;100.00
79534;BME280;68982;52.160;6.736;2024-01-06T09:07:14;100668.16;;;1.56;100.00
79534;BME280;68982;52.160;6.736;2024-01-06T09:09:40;100674.31;;;1.26;100.00
79534;BME280;68982;52.160;6.736;2024-01-06T09:12:05;100682.22;;;1.16;100.00
79534;BME280;68982;52.160;6.736;2024-01-06T09:14:30;100677.56;;;1.08;100.00
79534;BME280;68982;52.160;6.736;2024-01-06T09:16:56;100664.19;;;1.19;100.00
79534;BME280;68982;52.160;6.736;2024-01-06T09:19:21;100686.16;;;1.21;100.00
79534;BME280;68982;52.160;6.736;2024-01-06T09:21:47;100690.44;;;1.13;100.00
79534;BME280;68982;52.160;6.736;2024-01-06T09:24:12;100695.44;;;1.06;100.00
79534;BME280;68982;52.160;6.736;2024-01-06T09:26:37;100699.19;;;1.24;100.00
79534;BME280;68982;52.160;6.736;2024-01-06T09:29:03;100704.16;;;1.39;100.00
79534;BME280;68982;52.160;6.736;2024-01-06T09:31:29;100702.53;;;1.27;100.00
79534;BME280;68982;52.160;6.736;2024-01-06T09:33:55;100719.66;;;1.13;100.00
79534;BME280;68982;52.160;6.736;2024-01-06T09:36:20;100714.81;;;1.18;100.00
79534;BME280;68982;52.160;6.736;2024-01-06T09:38:46;100725.28;;;1.19;100.00
79534;BME280;68982;52.160;6.736;2024-01-06T09:41:11;100734.41;;;1.27;100.00
79534;BME280;68982;52.160;6.736;2024-01-06T09:43:36;100730.75;;;1.18;100.00
79534;BME280;68982;52.160;6.736;2024-01-06T09:46:09;100737.59;;;1.20;100.00
79534;BME280;68982;52.160;6.736;2024-01-06T09:48:40;100736.38;;;1.24;100.00
79534;BME280;68982;52.160;6.736;2024-01-06T09:51:10;100730.00;;;1.37;100.00
79534;BME280;68982;52.160;6.736;2024-01-06T09:53:49;100744.13;;;1.37;100.00
79534;BME280;68982;52.160;6.736;2024-01-06T09:56:17;100741.16;;;1.31;100.00
79534;BME280;68982;52.160;6.736;2024-01-06T09:58:44;100748.16;;;1.32;100.00
79534;BME280;68982;52.160;6.736;2024-01-06T10:01:10;100746.66;;;1.39;100.00
79534;BME280;68982;52.160;6.736;2024-01-06T10:03:37;100748.16;;;1.32;100.00
79534;BME280;68982;52.160;6.736;2024-01-06T10:06:03;100753.84;;;1.48;100.00
79534;BME280;68982;52.160;6.736;2024-01-06T10:08:30;100749.50;;;1.47;100.00
79534;BME280;68982;52.160;6.736;2024-01-06T10:10:57;100750.53;;;1.35;100.00
79534;BME280;68982;52.160;6.736;2024-01-06T10:13:23;100762.88;;;1.36;100.00
79534;BME280;68982;52.160;6.736;2024-01-06T10:15:49;100755.94;;;1.23;100.00
79534;BME280;68982;52.160;6.736;2024-01-06T10:18:14;100761.28;;;1.33;100.00
79534;BME280;68982;52.160;6.736;2024-01-06T10:20:40;100771.16;;;1.21;100.00
79534;BME280;68982;52.160;6.736;2024-01-06T10:23:05;100759.75;;;1.31;100.00
79534;BME280;68982;52.160;6.736;2024-01-06T10:25:31;100764.81;;;1.34;100.00
79534;BME280;68982;52.160;6.736;2024-01-06T10:27:57;100760.72;;;1.30;100.00
79534;BME280;68982;52.160;6.736;2024-01-06T10:30:25;100769.59;;;1.19;100.00
79534;BME280;68982;52.160;6.736;2024-01-06T10:32:50;100778.03;;;1.24;100.00
79534;BME280;68982;52.160;6.736;2024-01-06T10:35:17;100776.28;;;1.34;100.00
79534;BME280;68982;52.160;6.736;2024-01-06T10:37:44;100773.31;;;1.28;100.00
79534;BME280;68982;52.160;6.736;2024-01-06T10:40:11;100780.75;;;1.34;100.00
79534;BME280;68982;52.160;6.736;2024-01-06T10:42:37;100775.38;;;1.45;100.00
79534;BME280;68982;52.160;6.736;2024-01-06T10:45:10;100769.41;;;1.32;100.00
79534;BME280;68982;52.160;6.736;2024-01-06T10:47:37;100784.44;;;1.21;100.00
79534;BME280;68982;52.160;6.736;2024-01-06T10:50:03;100783.72;;;1.40;100.00
79534;BME280;68982;52.160;6.736;2024-01-06T10:52:29;100787.75;;;1.56;100.00
79534;BME280;68982;52.160;6.736;2024-01-06T10:54:55;100785.34;;;1.11;100.00
79534;BME280;68982;52.160;6.736;2024-01-06T10:57:21;100792.09;;;1.36;100.00
79534;BME280;68982;52.160;6.736;2024-01-06T10:59:49;100790.59;;;1.22;100.00
79534;BME280;68982;52.160;6.736;2024-01-06T11:02:15;100794.88;;;1.34;100.00
79534;BME280;68982;52.160;6.736;2024-01-06T11:04:44;100803.13;;;1.31;100.00
79534;BME280;68982;52.160;6.736;2024-01-06T11:07:10;100796.88;;;1.42;100.00
79534;BME280;68982;52.160;6.736;2024-01-06T11:09:39;100810.28;;;1.19;100.00
79534;BME280;68982;52.160;6.736;2024-01-06T11:12:07;100809.78;;;1.26;100.00
79534;BME280;68982;52.160;6.736;2024-01-06T11:14:36;100817.16;;;1.43;100.00
79534;BME280;68982;52.160;6.736;2024-01-06T11:17:02;100810.34;;;1.50;100.00
79534;BME280;68982;52.160;6.736;2024-01-06T11:22:19;100817.28;;;1.41;100.00
79534;BME280;68982;52.160;6.736;2024-01-06T11:24:48;100819.94;;;1.41;100.00
79534;BME280;68982;52.160;6.736;2024-01-06T11:27:22;100825.31;;;1.51;100.00
79534;BME280;68982;52.160;6.736;2024-01-06T11:29:50;100815.03;;;1.37;100.00
79534;BME280;68982;52.160;6.736;2024-01-06T11:32:20;100816.31;;;1.21;100.00
79534;BME280;68982;52.160;6.736;2024-01-06T11:34:53;100823.19;;;1.45;100.00
79534;BME280;68982;52.160;6.736;2024-01-06T11:37:36;100820.53;;;1.66;100.00
79534;BME280;68982;52.160;6.736;2024-01-06T11:40:02;100821.88;;;1.39;100.00
79534;BME280;68982;52.160;6.736;2024-01-06T11:42:34;100820.41;;;1.26;100.00
79534;BME280;68982;52.160;6.736;2024-01-06T11:45:07;100819.22;;;1.18;100.00
79534;BME280;68982;52.160;6.736;2024-01-06T11:47:36;100814.16;;;1.15;100.00
79534;BME280;68982;52.160;6.736;2024-01-06T11:50:02;100825.59;;;1.27;100.00
79534;BME280;68982;52.160;6.736;2024-01-06T11:52:32;100824.59;;;1.28;100.00
79534;BME280;68982;52.160;6.736;2024-01-06T11:54:58;100828.09;;;1.29;100.00
79534;BME280;68982;52.160;6.736;2024-01-06T11:57:28;100820.72;;;1.32;100.00
79534;BME280;68982;52.160;6.736;2024-01-06T11:59:53;100817.91;;;1.13;100.00
79534;BME280;68982;52.160;6.736;2024-01-06T12:02:19;100815.88;;;1.16;100.00
79534;BME280;68982;52.160;6.736;2024-01-06T12:04:52;100819.94;;;1.20;100.00
79534;BME280;68982;52.160;6.736;2024-01-06T12:07:18;100821.78;;;1.41;100.00
79534;BME280;68982;52.160;6.736;2024-01-06T12:09:45;100823.44;;;1.42;100.00
79534;BME280;68982;52.160;6.736;2024-01-06T12:12:11;100829.47;;;1.44;100.00
79534;BME280;68982;52.160;6.736;2024-01-06T12:14:40;100807.84;;;1.28;100.00
79534;BME280;68982;52.160;6.736;2024-01-06T12:17:06;100831.66;;;1.60;100.00
79534;BME280;68982;52.160;6.736;2024-01-06T12:19:32;100819.31;;;1.49;100.00
79534;BME280;68982;52.160;6.736;2024-01-06T12:21:58;100807.25;;;1.45;100.00
79534;BME280;68982;52.160;6.736;2024-01-06T12:24:27;100822.59;;;1.41;100.00
79534;BME280;68982;52.160;6.736;2024-01-06T12:26:52;100804.31;;;1.48;100.00
79534;BME280;68982;52.160;6.736;2024-01-06T12:29:18;100804.22;;;1.50;100.00
79534;BME280;68982;52.160;6.736;2024-01-06T12:31:44;100803.09;;;1.52;100.00
79534;BME280;68982;52.160;6.736;2024-01-06T12:34:10;100810.78;;;1.55;100.00
79534;BME280;68982;52.160;6.736;2024-01-06T12:36:37;100798.81;;;1.40;100.00
79534;BME280;68982;52.160;6.736;2024-01-06T12:39:10;100818.44;;;1.49;100.00
79534;BME280;68982;52.160;6.736;2024-01-06T12:41:41;100816.00;;;1.36;100.00
79534;BME280;68982;52.160;6.736;2024-01-06T12:44:08;100818.78;;;1.55;100.00
79534;BME280;68982;52.160;6.736;2024-01-06T12:46:34;100818.56;;;1.68;100.00